sensor_id;sensor_type;location;lat;lon;timestamp;P1;durP1;ratioP1;P2;durP2;ratioP2
33154;SDS011;19511;42.682;23.332;2022-10-19T00:01:00;770.25;;;697.97;;
33154;SDS011;19511;42.682;23.332;2022-10-19T00:03:27;855.10;;;774.15;;
33154;SDS011;19511;42.682;23.332;2022-10-19T00:05:53;775.17;;;705.95;;
33154;SDS011;19511;42.682;23.332;2022-10-19T00:08:18;714.50;;;651.40;;
33154;SDS011;19511;42.682;23.332;2022-10-19T00:10:44;732.50;;;666.00;;
33154;SDS011;19511;42.682;23.332;2022-10-19T00:13:09;719.20;;;655.33;;
33154;SDS011;19511;42.682;23.332;2022-10-19T00:15:41;714.95;;;653.20;;
33154;SDS011;19511;42.682;23.332;2022-10-19T00:18:07;735.95;;;670.10;;
33154;SDS011;19511;42.682;23.332;2022-10-19T00:20:33;740.22;;;673.63;;
33154;SDS011;19511;42.682;23.332;2022-10-19T00:23:00;698.20;;;639.20;;
33154;SDS011;19511;42.682;23.332;2022-10-19T00:25:25;688.78;;;629.15;;
33154;SDS011;19511;42.682;23.332;2022-10-19T00:27:51;638.42;;;584.65;;
33154;SDS011;19511;42.682;23.332;2022-10-19T00:30:16;675.55;;;616.65;;
33154;SDS011;19511;42.682;23.332;2022-10-19T00:32:41;619.95;;;568.22;;
33154;SDS011;19511;42.682;23.332;2022-10-19T00:35:07;558.35;;;513.35;;
33154;SDS011;19511;42.682;23.332;2022-10-19T00:37:33;562.22;;;515.90;;
33154;SDS011;19511;42.682;23.332;2022-10-19T00:40:01;454.17;;;418.58;;
33154;SDS011;19511;42.682;23.332;2022-10-19T00:42:32;531.70;;;488.27;;
33154;SDS011;19511;42.682;23.332;2022-10-19T00:45:00;481.92;;;444.17;;
33154;SDS011;19511;42.682;23.332;2022-10-19T00:47:27;426.13;;;392.10;;
33154;SDS011;19511;42.682;23.332;2022-10-19T00:49:54;464.90;;;428.35;;
33154;SDS011;19511;42.682;23.332;2022-10-19T00:52:22;332.95;;;308.05;;
33154;SDS011;19511;42.682;23.332;2022-10-19T00:54:50;475.20;;;438.80;;
33154;SDS011;19511;42.682;23.332;2022-10-19T00:57:20;302.33;;;280.48;;
33154;SDS011;19511;42.682;23.332;2022-10-19T00:59:47;336.90;;;311.73;;
33154;SDS011;19511;42.682;23.332;2022-10-19T01:02:13;271.27;;;251.82;;
33154;SDS011;19511;42.682;23.332;2022-10-19T01:04:39;288.73;;;266.60;;
33154;SDS011;19511;42.682;23.332;2022-10-19T01:07:08;257.50;;;239.13;;
33154;SDS011;19511;42.682;23.332;2022-10-19T01:09:35;218.68;;;202.77;;
33154;SDS011;19511;42.682;23.332;2022-10-19T01:12:17;152.30;;;141.23;;
33154;SDS011;19511;42.682;23.332;2022-10-19T01:17:51;200.70;;;186.75;;
33154;SDS011;19511;42.682;23.332;2022-10-19T01:31:59;191.30;;;176.45;;
33154;SDS011;19511;42.682;23.332;2022-10-19T01:34:46;204.15;;;189.52;;
33154;SDS011;19511;42.682;23.332;2022-10-19T01:40:05;127.32;;;117.10;;
33154;SDS011;19511;42.682;23.332;2022-10-19T01:45:23;85.30;;;78.15;;
33154;SDS011;19511;42.682;23.332;2022-10-19T01:47:58;120.55;;;112.22;;
33154;SDS011;19511;42.682;23.332;2022-10-19T01:50:34;97.78;;;89.93;;
33154;SDS011;19511;42.682;23.332;2022-10-19T01:53:05;124.70;;;115.70;;
33154;SDS011;19511;42.682;23.332;2022-10-19T01:55:38;85.82;;;79.25;;
33154;SDS011;19511;42.682;23.332;2022-10-19T01:58:08;88.78;;;82.32;;
33154;SDS011;19511;42.682;23.332;2022-10-19T02:00:40;128.53;;;119.43;;
33154;SDS011;19511;42.682;23.332;2022-10-19T02:03:10;98.07;;;89.05;;
33154;SDS011;19511;42.682;23.332;2022-10-19T02:05:41;102.65;;;95.07;;
33154;SDS011;19511;42.682;23.332;2022-10-19T02:08:10;73.72;;;67.50;;
33154;SDS011;19511;42.682;23.332;2022-10-19T02:10:39;89.90;;;82.95;;
33154;SDS011;19511;42.682;23.332;2022-10-19T02:13:08;93.80;;;86.28;;
33154;SDS011;19511;42.682;23.332;2022-10-19T02:15:37;90.85;;;82.90;;
33154;SDS011;19511;42.682;23.332;2022-10-19T02:18:07;106.18;;;98.05;;
33154;SDS011;19511;42.682;23.332;2022-10-19T02:20:36;71.13;;;64.82;;
33154;SDS011;19511;42.682;23.332;2022-10-19T02:23:05;236.10;;;218.30;;
33154;SDS011;19511;42.682;23.332;2022-10-19T02:25:31;198.57;;;183.45;;
33154;SDS011;19511;42.682;23.332;2022-10-19T02:27:58;224.15;;;207.25;;
33154;SDS011;19511;42.682;23.332;2022-10-19T02:30:24;233.40;;;216.45;;
33154;SDS011;19511;42.682;23.332;2022-10-19T02:32:50;173.77;;;160.98;;
33154;SDS011;19511;42.682;23.332;2022-10-19T02:35:16;191.48;;;177.75;;
33154;SDS011;19511;42.682;23.332;2022-10-19T02:37:42;175.52;;;161.00;;
33154;SDS011;19511;42.682;23.332;2022-10-19T02:40:07;152.45;;;140.98;;
33154;SDS011;19511;42.682;23.332;2022-10-19T02:45:31;197.45;;;182.07;;
33154;SDS011;19511;42.682;23.332;2022-10-19T02:48:02;129.50;;;120.53;;
33154;SDS011;19511;42.682;23.332;2022-10-19T02:50:31;117.63;;;108.63;;
33154;SDS011;19511;42.682;23.332;2022-10-19T02:52:57;47.75;;;43.80;;
33154;SDS011;19511;42.682;23.332;2022-10-19T02:55:23;88.82;;;81.18;;
33154;SDS011;19511;42.682;23.332;2022-10-19T02:57:49;77.60;;;70.95;;
33154;SDS011;19511;42.682;23.332;2022-10-19T03:00:15;78.50;;;72.10;;
33154;SDS011;19511;42.682;23.332;2022-10-19T03:02:41;42.45;;;34.42;;
33154;SDS011;19511;42.682;23.332;2022-10-19T03:05:06;85.20;;;77.63;;
33154;SDS011;19511;42.682;23.332;2022-10-19T03:07:33;56.60;;;52.28;;
33154;SDS011;19511;42.682;23.332;2022-10-19T03:09:59;57.78;;;52.78;;
33154;SDS011;19511;42.682;23.332;2022-10-19T03:12:24;49.30;;;44.38;;
33154;SDS011;19511;42.682;23.332;2022-10-19T03:14:50;31.63;;;28.50;;
33154;SDS011;19511;42.682;23.332;2022-10-19T03:17:15;27.63;;;25.27;;
33154;SDS011;19511;42.682;23.332;2022-10-19T03:19:40;43.15;;;38.83;;
33154;SDS011;19511;42.682;23.332;2022-10-19T03:22:11;43.92;;;37.88;;
33154;SDS011;19511;42.682;23.332;2022-10-19T03:24:38;27.77;;;25.13;;
33154;SDS011;19511;42.682;23.332;2022-10-19T03:27:03;24.30;;;21.88;;
33154;SDS011;19511;42.682;23.332;2022-10-19T03:29:29;31.65;;;26.52;;
33154;SDS011;19511;42.682;23.332;2022-10-19T03:31:54;32.90;;;29.15;;
33154;SDS011;19511;42.682;23.332;2022-10-19T03:34:20;23.45;;;20.55;;
33154;SDS011;19511;42.682;23.332;2022-10-19T03:36:45;28.58;;;25.48;;
33154;SDS011;19511;42.682;23.332;2022-10-19T03:39:11;13.63;;;10.98;;
33154;SDS011;19511;42.682;23.332;2022-10-19T03:41:38;31.42;;;28.42;;
33154;SDS011;19511;42.682;23.332;2022-10-19T03:44:05;19.08;;;17.35;;
33154;SDS011;19511;42.682;23.332;2022-10-19T03:46:31;33.03;;;30.10;;
33154;SDS011;19511;42.682;23.332;2022-10-19T03:48:57;13.02;;;11.70;;
33154;SDS011;19511;42.682;23.332;2022-10-19T03:51:24;23.23;;;19.40;;
33154;SDS011;19511;42.682;23.332;2022-10-19T03:53:52;41.55;;;32.30;;
33154;SDS011;19511;42.682;23.332;2022-10-19T03:56:19;27.58;;;23.60;;
33154;SDS011;19511;42.682;23.332;2022-10-19T03:58:47;24.20;;;15.30;;
33154;SDS011;19511;42.682;23.332;2022-10-19T04:01:15;24.80;;;19.55;;
33154;SDS011;19511;42.682;23.332;2022-10-19T04:03:42;22.33;;;20.23;;
33154;SDS011;19511;42.682;23.332;2022-10-19T04:06:09;34.50;;;29.85;;
33154;SDS011;19511;42.682;23.332;2022-10-19T04:08:37;31.95;;;26.35;;
33154;SDS011;19511;42.682;23.332;2022-10-19T04:11:04;15.65;;;14.00;;
33154;SDS011;19511;42.682;23.332;2022-10-19T04:13:31;26.73;;;20.52;;
33154;SDS011;19511;42.682;23.332;2022-10-19T04:15:57;37.40;;;19.80;;
33154;SDS011;19511;42.682;23.332;2022-10-19T04:18:23;17.10;;;15.65;;
33154;SDS011;19511;42.682;23.332;2022-10-19T04:20:54;18.27;;;14.30;;
33154;SDS011;19511;42.682;23.332;2022-10-19T04:23:20;21.08;;;14.73;;
33154;SDS011;19511;42.682;23.332;2022-10-19T04:25:46;38.33;;;11.45;;
33154;SDS011;19511;42.682;23.332;2022-10-19T04:28:11;28.50;;;13.55;;
33154;SDS011;19511;42.682;23.332;2022-10-19T04:30:36;17.08;;;10.77;;
33154;SDS011;19511;42.682;23.332;2022-10-19T04:33:02;17.13;;;11.55;;
33154;SDS011;19511;42.682;23.332;2022-10-19T04:35:27;17.60;;;15.20;;
33154;SDS011;19511;42.682;23.332;2022-10-19T04:37:53;17.15;;;11.63;;
33154;SDS011;19511;42.682;23.332;2022-10-19T04:40:18;18.42;;;10.30;;
33154;SDS011;19511;42.682;23.332;2022-10-19T04:42:44;22.75;;;14.23;;
33154;SDS011;19511;42.682;23.332;2022-10-19T04:45:09;26.52;;;15.43;;
33154;SDS011;19511;42.682;23.332;2022-10-19T04:47:35;18.23;;;15.07;;
33154;SDS011;19511;42.682;23.332;2022-10-19T04:50:00;23.52;;;13.07;;
33154;SDS011;19511;42.682;23.332;2022-10-19T04:52:25;19.88;;;11.95;;
33154;SDS011;19511;42.682;23.332;2022-10-19T04:54:51;21.75;;;12.77;;
33154;SDS011;19511;42.682;23.332;2022-10-19T04:57:16;20.10;;;10.07;;
33154;SDS011;19511;42.682;23.332;2022-10-19T04:59:42;11.05;;;8.10;;
33154;SDS011;19511;42.682;23.332;2022-10-19T05:02:07;11.88;;;7.03;;
33154;SDS011;19511;42.682;23.332;2022-10-19T05:04:32;14.90;;;8.27;;
33154;SDS011;19511;42.682;23.332;2022-10-19T05:06:58;28.80;;;8.82;;
33154;SDS011;19511;42.682;23.332;2022-10-19T05:09:23;19.33;;;9.98;;
33154;SDS011;19511;42.682;23.332;2022-10-19T05:11:49;11.60;;;7.93;;
33154;SDS011;19511;42.682;23.332;2022-10-19T05:14:15;9.52;;;6.35;;
33154;SDS011;19511;42.682;23.332;2022-10-19T05:16:40;11.35;;;7.55;;
33154;SDS011;19511;42.682;23.332;2022-10-19T05:19:06;15.70;;;10.82;;
33154;SDS011;19511;42.682;23.332;2022-10-19T05:21:31;27.85;;;15.15;;
33154;SDS011;19511;42.682;23.332;2022-10-19T05:23:57;17.60;;;12.15;;
33154;SDS011;19511;42.682;23.332;2022-10-19T05:26:23;17.27;;;8.95;;
33154;SDS011;19511;42.682;23.332;2022-10-19T05:28:51;15.82;;;7.53;;
33154;SDS011;19511;42.682;23.332;2022-10-19T05:31:20;18.45;;;13.88;;
33154;SDS011;19511;42.682;23.332;2022-10-19T05:33:47;16.70;;;8.02;;
33154;SDS011;19511;42.682;23.332;2022-10-19T05:36:20;13.95;;;6.82;;
33154;SDS011;19511;42.682;23.332;2022-10-19T05:38:46;9.45;;;5.60;;
33154;SDS011;19511;42.682;23.332;2022-10-19T05:41:13;24.40;;;6.90;;
33154;SDS011;19511;42.682;23.332;2022-10-19T05:43:40;11.07;;;6.50;;
33154;SDS011;19511;42.682;23.332;2022-10-19T05:46:11;16.30;;;7.75;;
33154;SDS011;19511;42.682;23.332;2022-10-19T05:48:38;18.50;;;9.73;;
33154;SDS011;19511;42.682;23.332;2022-10-19T05:51:05;12.27;;;7.68;;
33154;SDS011;19511;42.682;23.332;2022-10-19T05:53:32;9.77;;;8.27;;
33154;SDS011;19511;42.682;23.332;2022-10-19T05:55:59;16.70;;;9.43;;
33154;SDS011;19511;42.682;23.332;2022-10-19T05:58:24;13.35;;;7.80;;
33154;SDS011;19511;42.682;23.332;2022-10-19T06:00:51;12.30;;;10.63;;
33154;SDS011;19511;42.682;23.332;2022-10-19T06:03:20;20.65;;;12.35;;
33154;SDS011;19511;42.682;23.332;2022-10-19T06:05:47;23.45;;;13.35;;
33154;SDS011;19511;42.682;23.332;2022-10-19T06:08:13;26.45;;;15.88;;
33154;SDS011;19511;42.682;23.332;2022-10-19T06:10:40;18.20;;;13.60;;
33154;SDS011;19511;42.682;23.332;2022-10-19T06:13:05;23.00;;;20.35;;
33154;SDS011;19511;42.682;23.332;2022-10-19T06:15:34;29.38;;;23.27;;
33154;SDS011;19511;42.682;23.332;2022-10-19T06:18:03;21.88;;;19.52;;
33154;SDS011;19511;42.682;23.332;2022-10-19T06:20:29;26.60;;;19.30;;
33154;SDS011;19511;42.682;23.332;2022-10-19T06:22:55;32.65;;;24.63;;
33154;SDS011;19511;42.682;23.332;2022-10-19T06:25:24;42.15;;;37.75;;
33154;SDS011;19511;42.682;23.332;2022-10-19T06:27:50;49.22;;;44.63;;
33154;SDS011;19511;42.682;23.332;2022-10-19T06:30:23;73.25;;;67.13;;
33154;SDS011;19511;42.682;23.332;2022-10-19T06:32:52;92.17;;;84.83;;
33154;SDS011;19511;42.682;23.332;2022-10-19T06:35:21;138.98;;;129.00;;
33154;SDS011;19511;42.682;23.332;2022-10-19T06:37:52;176.23;;;163.25;;
33154;SDS011;19511;42.682;23.332;2022-10-19T06:44:38;307.35;;;286.48;;
33154;SDS011;19511;42.682;23.332;2022-10-19T06:47:07;391.70;;;364.27;;
33154;SDS011;19511;42.682;23.332;2022-10-19T06:49:32;775.05;;;710.50;;
33154;SDS011;19511;42.682;23.332;2022-10-19T06:52:00;829.17;;;758.63;;
33154;SDS011;19511;42.682;23.332;2022-10-19T06:54:26;934.45;;;848.90;;
33154;SDS011;19511;42.682;23.332;2022-10-19T06:56:58;953.50;;;864.10;;
33154;SDS011;19511;42.682;23.332;2022-10-19T06:59:24;1119.63;;;995.53;;
33154;SDS011;19511;42.682;23.332;2022-10-19T07:02:00;1207.97;;;999.90;;
33154;SDS011;19511;42.682;23.332;2022-10-19T07:04:37;1418.15;;;999.90;;
33154;SDS011;19511;42.682;23.332;2022-10-19T07:07:07;1379.15;;;999.90;;
33154;SDS011;19511;42.682;23.332;2022-10-19T07:09:33;1195.13;;;999.90;;
33154;SDS011;19511;42.682;23.332;2022-10-19T07:12:00;1381.32;;;999.00;;
33154;SDS011;19511;42.682;23.332;2022-10-19T07:14:26;1999.90;;;999.90;;
33154;SDS011;19511;42.682;23.332;2022-10-19T07:20:17;1999.90;;;999.90;;
33154;SDS011;19511;42.682;23.332;2022-10-19T07:22:42;1999.90;;;999.90;;
33154;SDS011;19511;42.682;23.332;2022-10-19T07:25:10;1999.90;;;999.90;;
33154;SDS011;19511;42.682;23.332;2022-10-19T07:27:36;1999.90;;;999.90;;
33154;SDS011;19511;42.682;23.332;2022-10-19T07:30:03;1999.90;;;999.90;;
33154;SDS011;19511;42.682;23.332;2022-10-19T07:32:33;1999.90;;;999.90;;
33154;SDS011;19511;42.682;23.332;2022-10-19T07:34:58;1999.90;;;999.90;;
33154;SDS011;19511;42.682;23.332;2022-10-19T07:37:26;1999.90;;;999.90;;
33154;SDS011;19511;42.682;23.332;2022-10-19T07:39:52;1999.90;;;999.90;;
33154;SDS011;19511;42.682;23.332;2022-10-19T07:42:20;1999.90;;;999.90;;
33154;SDS011;19511;42.682;23.332;2022-10-19T07:44:46;1999.90;;;999.90;;
33154;SDS011;19511;42.682;23.332;2022-10-19T07:47:16;1999.90;;;999.90;;
33154;SDS011;19511;42.682;23.332;2022-10-19T07:49:52;1999.90;;;999.90;;
33154;SDS011;19511;42.682;23.332;2022-10-19T07:52:21;1999.90;;;999.90;;
33154;SDS011;19511;42.682;23.332;2022-10-19T07:54:47;1999.90;;;999.90;;
33154;SDS011;19511;42.682;23.332;2022-10-19T07:57:13;1999.90;;;999.90;;
33154;SDS011;19511;42.682;23.332;2022-10-19T07:59:43;1999.90;;;999.90;;
33154;SDS011;19511;42.682;23.332;2022-10-19T08:02:12;1999.90;;;999.90;;
33154;SDS011;19511;42.682;23.332;2022-10-19T08:04:41;1999.90;;;999.90;;
33154;SDS011;19511;42.682;23.332;2022-10-19T08:07:07;1999.90;;;999.90;;
33154;SDS011;19511;42.682;23.332;2022-10-19T08:09:36;1999.90;;;999.90;;
33154;SDS011;19511;42.682;23.332;2022-10-19T08:12:02;1999.90;;;999.90;;
33154;SDS011;19511;42.682;23.332;2022-10-19T08:14:29;1999.90;;;999.90;;
33154;SDS011;19511;42.682;23.332;2022-10-19T08:16:55;1999.90;;;999.90;;
33154;SDS011;19511;42.682;23.332;2022-10-19T08:19:20;1999.90;;;999.90;;
33154;SDS011;19511;42.682;23.332;2022-10-19T08:21:49;1999.90;;;999.90;;
33154;SDS011;19511;42.682;23.332;2022-10-19T08:24:17;1999.90;;;999.90;;
33154;SDS011;19511;42.682;23.332;2022-10-19T08:26:44;1999.90;;;999.90;;
33154;SDS011;19511;42.682;23.332;2022-10-19T08:31:43;1999.90;;;999.90;;
33154;SDS011;19511;42.682;23.332;2022-10-19T08:34:13;1999.90;;;999.90;;
33154;SDS011;19511;42.682;23.332;2022-10-19T08:36:40;1999.90;;;999.90;;
33154;SDS011;19511;42.682;23.332;2022-10-19T08:39:06;1999.90;;;999.90;;
33154;SDS011;19511;42.682;23.332;2022-10-19T08:49:36;1999.90;;;999.90;;
33154;SDS011;19511;42.682;23.332;2022-10-19T08:52:13;1999.90;;;999.90;;
33154;SDS011;19511;42.682;23.332;2022-10-19T08:54:58;1999.90;;;999.90;;
33154;SDS011;19511;42.682;23.332;2022-10-19T09:00:22;1999.90;;;999.90;;
33154;SDS011;19511;42.682;23.332;2022-10-19T09:03:12;1999.90;;;999.90;;
33154;SDS011;19511;42.682;23.332;2022-10-19T09:08:29;1999.90;;;999.90;;
33154;SDS011;19511;42.682;23.332;2022-10-19T09:11:00;1604.60;;;877.00;;
33154;SDS011;19511;42.682;23.332;2022-10-19T09:13:42;1999.90;;;999.90;;
33154;SDS011;19511;42.682;23.332;2022-10-19T09:16:13;1345.45;;;800.97;;
33154;SDS011;19511;42.682;23.332;2022-10-19T09:18:41;1634.63;;;819.42;;
33154;SDS011;19511;42.682;23.332;2022-10-19T09:23:45;1999.90;;;999.90;;
33154;SDS011;19511;42.682;23.332;2022-10-19T09:26:24;1999.90;;;999.90;;
33154;SDS011;19511;42.682;23.332;2022-10-19T09:29:28;1999.90;;;999.90;;
33154;SDS011;19511;42.682;23.332;2022-10-19T09:31:54;1419.82;;;928.33;;
33154;SDS011;19511;42.682;23.332;2022-10-19T09:34:32;1718.10;;;991.10;;
33154;SDS011;19511;42.682;23.332;2022-10-19T09:37:12;1659.32;;;912.95;;
33154;SDS011;19511;42.682;23.332;2022-10-19T09:39:37;1912.57;;;998.95;;
33154;SDS011;19511;42.682;23.332;2022-10-19T09:42:16;1869.47;;;999.90;;
33154;SDS011;19511;42.682;23.332;2022-10-19T09:44:53;1877.72;;;999.90;;
33154;SDS011;19511;42.682;23.332;2022-10-19T09:52:44;1702.93;;;999.90;;
33154;SDS011;19511;42.682;23.332;2022-10-19T09:58:01;1614.43;;;999.90;;
33154;SDS011;19511;42.682;23.332;2022-10-19T10:00:44;1603.63;;;999.90;;
33154;SDS011;19511;42.682;23.332;2022-10-19T10:03:33;1665.97;;;999.90;;
33154;SDS011;19511;42.682;23.332;2022-10-19T10:06:03;1467.50;;;999.90;;
33154;SDS011;19511;42.682;23.332;2022-10-19T10:08:34;1663.95;;;999.90;;
33154;SDS011;19511;42.682;23.332;2022-10-19T10:13:35;1641.60;;;999.90;;
33154;SDS011;19511;42.682;23.332;2022-10-19T10:16:06;1563.95;;;999.90;;
33154;SDS011;19511;42.682;23.332;2022-10-19T10:18:38;1586.63;;;999.90;;
33154;SDS011;19511;42.682;23.332;2022-10-19T10:21:21;1600.88;;;999.90;;
33154;SDS011;19511;42.682;23.332;2022-10-19T10:23:59;1651.03;;;999.90;;
33154;SDS011;19511;42.682;23.332;2022-10-19T10:26:30;1612.75;;;999.90;;
33154;SDS011;19511;42.682;23.332;2022-10-19T10:28:56;1555.78;;;999.90;;
33154;SDS011;19511;42.682;23.332;2022-10-19T10:31:26;1564.57;;;999.90;;
33154;SDS011;19511;42.682;23.332;2022-10-19T10:33:57;1457.15;;;999.90;;
33154;SDS011;19511;42.682;23.332;2022-10-19T10:36:29;1437.82;;;999.90;;
33154;SDS011;19511;42.682;23.332;2022-10-19T10:39:14;1241.85;;;999.90;;
33154;SDS011;19511;42.682;23.332;2022-10-19T10:41:42;1417.95;;;999.90;;
33154;SDS011;19511;42.682;23.332;2022-10-19T10:44:15;1324.90;;;999.90;;
33154;SDS011;19511;42.682;23.332;2022-10-19T10:49:23;1454.85;;;999.90;;
33154;SDS011;19511;42.682;23.332;2022-10-19T10:54:33;1283.50;;;999.90;;
33154;SDS011;19511;42.682;23.332;2022-10-19T11:08:32;1371.95;;;999.90;;
33154;SDS011;19511;42.682;23.332;2022-10-19T11:13:44;1041.55;;;949.53;;
33154;SDS011;19511;42.682;23.332;2022-10-19T11:16:40;1037.30;;;945.25;;
33154;SDS011;19511;42.682;23.332;2022-10-19T11:28:22;1053.57;;;961.00;;
33154;SDS011;19511;42.682;23.332;2022-10-19T11:31:08;889.50;;;815.15;;
33154;SDS011;19511;42.682;23.332;2022-10-19T11:50:43;836.95;;;775.20;;
33154;SDS011;19511;42.682;23.332;2022-10-19T12:12:01;895.75;;;821.17;;
33154;SDS011;19511;42.682;23.332;2022-10-19T12:14:40;732.55;;;680.00;;
33154;SDS011;19511;42.682;23.332;2022-10-19T12:17:14;765.70;;;710.33;;
33154;SDS011;19511;42.682;23.332;2022-10-19T12:19:52;796.97;;;738.35;;
33154;SDS011;19511;42.682;23.332;2022-10-19T12:22:27;747.92;;;694.70;;
33154;SDS011;19511;42.682;23.332;2022-10-19T12:24:54;749.92;;;695.95;;
33154;SDS011;19511;42.682;23.332;2022-10-19T12:27:34;719.67;;;668.60;;
33154;SDS011;19511;42.682;23.332;2022-10-19T12:30:06;700.53;;;651.75;;
33154;SDS011;19511;42.682;23.332;2022-10-19T12:32:43;674.13;;;627.03;;
33154;SDS011;19511;42.682;23.332;2022-10-19T12:37:52;681.05;;;629.63;;
33154;SDS011;19511;42.682;23.332;2022-10-19T12:43:00;718.33;;;667.17;;
33154;SDS011;19511;42.682;23.332;2022-10-19T12:45:43;767.58;;;711.63;;
33154;SDS011;19511;42.682;23.332;2022-10-19T12:48:22;714.95;;;664.75;;
33154;SDS011;19511;42.682;23.332;2022-10-19T12:53:27;729.83;;;674.05;;
33154;SDS011;19511;42.682;23.332;2022-10-19T12:58:44;802.08;;;741.08;;
33154;SDS011;19511;42.682;23.332;2022-10-19T13:01:24;773.90;;;717.25;;
33154;SDS011;19511;42.682;23.332;2022-10-19T13:04:36;833.50;;;769.33;;
33154;SDS011;19511;42.682;23.332;2022-10-19T13:07:04;799.42;;;738.08;;
33154;SDS011;19511;42.682;23.332;2022-10-19T13:09:38;839.30;;;774.47;;
33154;SDS011;19511;42.682;23.332;2022-10-19T13:17:07;854.65;;;786.95;;
33154;SDS011;19511;42.682;23.332;2022-10-19T13:19:33;804.47;;;742.42;;
33154;SDS011;19511;42.682;23.332;2022-10-19T13:22:02;842.22;;;775.92;;
33154;SDS011;19511;42.682;23.332;2022-10-19T13:27:43;831.70;;;766.35;;
33154;SDS011;19511;42.682;23.332;2022-10-19T13:38:28;841.60;;;775.40;;
33154;SDS011;19511;42.682;23.332;2022-10-19T13:57:18;885.17;;;812.83;;
33154;SDS011;19511;42.682;23.332;2022-10-19T14:00:10;827.60;;;763.47;;
33154;SDS011;19511;42.682;23.332;2022-10-19T14:11:02;903.72;;;829.35;;
33154;SDS011;19511;42.682;23.332;2022-10-19T14:13:35;905.72;;;832.17;;
33154;SDS011;19511;42.682;23.332;2022-10-19T14:16:00;905.85;;;830.88;;
33154;SDS011;19511;42.682;23.332;2022-10-19T14:20:59;911.10;;;835.70;;
33154;SDS011;19511;42.682;23.332;2022-10-19T14:23:33;922.00;;;846.85;;
33154;SDS011;19511;42.682;23.332;2022-10-19T14:26:05;913.17;;;838.95;;
33154;SDS011;19511;42.682;23.332;2022-10-19T14:28:36;963.42;;;882.42;;
33154;SDS011;19511;42.682;23.332;2022-10-19T14:31:06;952.75;;;872.78;;
33154;SDS011;19511;42.682;23.332;2022-10-19T14:33:37;970.97;;;887.45;;
33154;SDS011;19511;42.682;23.332;2022-10-19T14:36:05;969.10;;;886.42;;
33154;SDS011;19511;42.682;23.332;2022-10-19T14:38:39;969.28;;;886.95;;
33154;SDS011;19511;42.682;23.332;2022-10-19T14:41:16;989.97;;;902.63;;
33154;SDS011;19511;42.682;23.332;2022-10-19T14:43:45;956.13;;;872.75;;
33154;SDS011;19511;42.682;23.332;2022-10-19T14:46:11;1001.78;;;913.88;;
33154;SDS011;19511;42.682;23.332;2022-10-19T14:59:28;935.60;;;857.72;;
33154;SDS011;19511;42.682;23.332;2022-10-19T15:01:56;974.97;;;893.03;;
33154;SDS011;19511;42.682;23.332;2022-10-19T15:04:25;971.20;;;889.35;;
33154;SDS011;19511;42.682;23.332;2022-10-19T15:06:53;1017.28;;;924.83;;
33154;SDS011;19511;42.682;23.332;2022-10-19T15:09:26;1039.32;;;946.45;;
33154;SDS011;19511;42.682;23.332;2022-10-19T15:12:03;1072.70;;;971.20;;
33154;SDS011;19511;42.682;23.332;2022-10-19T15:14:32;1032.15;;;939.17;;
33154;SDS011;19511;42.682;23.332;2022-10-19T15:16:58;1066.93;;;968.42;;
33154;SDS011;19511;42.682;23.332;2022-10-19T15:19:30;1067.45;;;965.40;;
33154;SDS011;19511;42.682;23.332;2022-10-19T15:24:38;1106.88;;;997.63;;
33154;SDS011;19511;42.682;23.332;2022-10-19T15:27:17;1101.80;;;995.55;;
33154;SDS011;19511;42.682;23.332;2022-10-19T15:32:35;1106.93;;;997.40;;
33154;SDS011;19511;42.682;23.332;2022-10-19T15:35:14;1125.05;;;999.90;;
33154;SDS011;19511;42.682;23.332;2022-10-19T15:37:48;1112.30;;;998.53;;
33154;SDS011;19511;42.682;23.332;2022-10-19T15:46:19;1160.00;;;999.90;;
33154;SDS011;19511;42.682;23.332;2022-10-19T15:48:49;1180.78;;;999.90;;
33154;SDS011;19511;42.682;23.332;2022-10-19T15:53:49;1243.50;;;999.90;;
33154;SDS011;19511;42.682;23.332;2022-10-19T15:56:19;1337.38;;;999.90;;
33154;SDS011;19511;42.682;23.332;2022-10-19T15:58:50;1371.72;;;999.90;;
33154;SDS011;19511;42.682;23.332;2022-10-19T16:01:18;1621.05;;;999.90;;
33154;SDS011;19511;42.682;23.332;2022-10-19T16:03:48;1291.78;;;999.90;;
33154;SDS011;19511;42.682;23.332;2022-10-19T16:06:14;1440.18;;;999.90;;
33154;SDS011;19511;42.682;23.332;2022-10-19T16:08:41;1463.38;;;999.90;;
33154;SDS011;19511;42.682;23.332;2022-10-19T16:11:10;1608.28;;;999.90;;
33154;SDS011;19511;42.682;23.332;2022-10-19T16:13:37;1591.75;;;999.90;;
33154;SDS011;19511;42.682;23.332;2022-10-19T16:16:03;1526.57;;;999.90;;
33154;SDS011;19511;42.682;23.332;2022-10-19T16:18:30;1527.45;;;999.90;;
33154;SDS011;19511;42.682;23.332;2022-10-19T16:20:56;1524.95;;;999.90;;
33154;SDS011;19511;42.682;23.332;2022-10-19T16:23:22;1543.80;;;999.90;;
33154;SDS011;19511;42.682;23.332;2022-10-19T16:25:48;1589.00;;;999.90;;
33154;SDS011;19511;42.682;23.332;2022-10-19T16:28:13;1553.35;;;999.90;;
33154;SDS011;19511;42.682;23.332;2022-10-19T16:30:39;1507.03;;;999.90;;
33154;SDS011;19511;42.682;23.332;2022-10-19T16:33:04;1496.35;;;999.90;;
33154;SDS011;19511;42.682;23.332;2022-10-19T16:35:30;1699.50;;;999.90;;
33154;SDS011;19511;42.682;23.332;2022-10-19T16:37:55;1535.53;;;999.90;;
33154;SDS011;19511;42.682;23.332;2022-10-19T16:40:21;1512.30;;;999.90;;
33154;SDS011;19511;42.682;23.332;2022-10-19T16:42:48;1526.82;;;999.90;;
33154;SDS011;19511;42.682;23.332;2022-10-19T16:45:13;1590.07;;;999.90;;
33154;SDS011;19511;42.682;23.332;2022-10-19T16:47:39;1499.22;;;999.90;;
33154;SDS011;19511;42.682;23.332;2022-10-19T16:50:04;1573.18;;;999.90;;
33154;SDS011;19511;42.682;23.332;2022-10-19T16:52:30;1555.60;;;999.90;;
33154;SDS011;19511;42.682;23.332;2022-10-19T16:54:57;1474.35;;;999.90;;
33154;SDS011;19511;42.682;23.332;2022-10-19T16:57:23;1576.05;;;999.90;;
33154;SDS011;19511;42.682;23.332;2022-10-19T16:59:52;1575.85;;;999.90;;
33154;SDS011;19511;42.682;23.332;2022-10-19T17:02:18;1601.82;;;999.90;;
33154;SDS011;19511;42.682;23.332;2022-10-19T17:04:45;1602.97;;;999.90;;
33154;SDS011;19511;42.682;23.332;2022-10-19T17:07:10;1711.65;;;999.90;;
33154;SDS011;19511;42.682;23.332;2022-10-19T17:09:37;1679.07;;;999.90;;
33154;SDS011;19511;42.682;23.332;2022-10-19T17:12:03;1669.80;;;999.90;;
33154;SDS011;19511;42.682;23.332;2022-10-19T17:14:29;1821.97;;;999.90;;
33154;SDS011;19511;42.682;23.332;2022-10-19T17:16:55;1672.72;;;999.90;;
33154;SDS011;19511;42.682;23.332;2022-10-19T17:19:20;1841.82;;;999.90;;
33154;SDS011;19511;42.682;23.332;2022-10-19T17:21:46;1721.82;;;999.90;;
33154;SDS011;19511;42.682;23.332;2022-10-19T17:24:13;1729.28;;;999.90;;